Startpagina
METAR-TAF:

METAR-TAF

Vliegvelden :

Tunis, Tunesië

Luchthaven Tunis-Carthage

breedte: 36-50N, lengte: 010-14E, hoogte: 3 m

Actueel weer

Dit bericht is 15 minuten geleden gemaakt, om 21:00 UTC
Wind 8 kt uit het zuidwesten
Temperatuur 11°C
Vochtigheid 82%
Druk 1024 hPa
Zicht 10 km of meer
Weinig wolken op 2600 ft

METAR: DTTA 162100Z 22008KT 9999 FEW026 11/08 Q1024 NOSIG

Tijdstip: 22:15 (21:15 UTC)

Verwachting

Dit bericht is 3 uur en het 48 minuten geleden gemaakt, om 17:27 UTC
Verwachting geldig van 16 om 18 UTC tot 17 om 18 UTC
Wind 10 kt uit het westen
Zicht 10 km of meer
Weinig wolken op 2600 ft

TAF: DTTA 161727Z 1618/1718 26010KT 9999 FEW026

Waarnemingen en weersverwachtingen van meer dan 4000 vliegvelden (METAR en TAF).

De beschikbare stations zijn de gele en rode punten op de kaart.

Ga met uw muis naar het station om de naam te zien.

Klik dan om waarnemingen en weersverwachtingen te zien.

kaart wijzigen: klik op de groene knoppen met een zwart kruis om in te zoomen, op de groene knop met een streepje om uit te zoomen of op de groene pijlen voor aangrenzende kaarten.


METAR-TAF: